sensor_id;sensor_type;location;lat;lon;timestamp;P1;durP1;ratioP1;P2;durP2;ratioP2
3407;SDS011;1717;50.240;8.406;2023-02-28T00:00:06;3.47;;;3.20;;
3407;SDS011;1717;50.240;8.406;2023-02-28T00:02:35;3.78;;;3.47;;
3407;SDS011;1717;50.240;8.406;2023-02-28T00:05:02;4.65;;;3.75;;
3407;SDS011;1717;50.240;8.406;2023-02-28T00:07:30;4.20;;;3.80;;
3407;SDS011;1717;50.240;8.406;2023-02-28T00:09:57;3.90;;;3.60;;
3407;SDS011;1717;50.240;8.406;2023-02-28T00:12:24;5.00;;;4.30;;
3407;SDS011;1717;50.240;8.406;2023-02-28T00:14:52;4.00;;;3.63;;
3407;SDS011;1717;50.240;8.406;2023-02-28T00:17:19;4.60;;;3.67;;
3407;SDS011;1717;50.240;8.406;2023-02-28T00:19:47;5.97;;;3.60;;
3407;SDS011;1717;50.240;8.406;2023-02-28T00:22:14;4.82;;;4.32;;
3407;SDS011;1717;50.240;8.406;2023-02-28T00:24:41;7.57;;;3.78;;
3407;SDS011;1717;50.240;8.406;2023-02-28T00:27:08;5.55;;;3.97;;
3407;SDS011;1717;50.240;8.406;2023-02-28T00:29:35;6.25;;;4.30;;
3407;SDS011;1717;50.240;8.406;2023-02-28T00:32:04;5.10;;;3.95;;
3407;SDS011;1717;50.240;8.406;2023-02-28T00:34:32;5.88;;;4.60;;
3407;SDS011;1717;50.240;8.406;2023-02-28T00:37:02;4.60;;;4.20;;
3407;SDS011;1717;50.240;8.406;2023-02-28T00:39:30;7.20;;;3.88;;
3407;SDS011;1717;50.240;8.406;2023-02-28T00:41:57;4.93;;;4.15;;
3407;SDS011;1717;50.240;8.406;2023-02-28T00:44:24;5.07;;;4.57;;
3407;SDS011;1717;50.240;8.406;2023-02-28T00:46:51;5.07;;;4.57;;
3407;SDS011;1717;50.240;8.406;2023-02-28T00:49:20;5.70;;;4.57;;
3407;SDS011;1717;50.240;8.406;2023-02-28T00:51:47;6.03;;;4.47;;
3407;SDS011;1717;50.240;8.406;2023-02-28T00:54:15;5.45;;;4.95;;
3407;SDS011;1717;50.240;8.406;2023-02-28T00:56:42;7.45;;;5.80;;
3407;SDS011;1717;50.240;8.406;2023-02-28T00:59:11;6.53;;;4.82;;
3407;SDS011;1717;50.240;8.406;2023-02-28T01:01:38;6.20;;;5.43;;
3407;SDS011;1717;50.240;8.406;2023-02-28T01:04:04;9.45;;;5.05;;
3407;SDS011;1717;50.240;8.406;2023-02-28T01:06:33;5.78;;;5.18;;
3407;SDS011;1717;50.240;8.406;2023-02-28T01:09:01;5.15;;;4.57;;
3407;SDS011;1717;50.240;8.406;2023-02-28T01:11:28;6.22;;;5.60;;
3407;SDS011;1717;50.240;8.406;2023-02-28T01:13:55;6.95;;;5.20;;
3407;SDS011;1717;50.240;8.406;2023-02-28T01:16:22;6.25;;;5.65;;
3407;SDS011;1717;50.240;8.406;2023-02-28T01:18:50;7.35;;;5.95;;
3407;SDS011;1717;50.240;8.406;2023-02-28T01:21:18;6.38;;;5.20;;
3407;SDS011;1717;50.240;8.406;2023-02-28T01:23:47;5.43;;;4.70;;
3407;SDS011;1717;50.240;8.406;2023-02-28T01:26:16;6.95;;;5.05;;
3407;SDS011;1717;50.240;8.406;2023-02-28T01:28:44;6.57;;;5.38;;
3407;SDS011;1717;50.240;8.406;2023-02-28T01:31:12;4.88;;;4.40;;
3407;SDS011;1717;50.240;8.406;2023-02-28T01:33:39;6.10;;;5.15;;
3407;SDS011;1717;50.240;8.406;2023-02-28T01:36:07;6.40;;;5.68;;
3407;SDS011;1717;50.240;8.406;2023-02-28T01:38:36;5.93;;;5.28;;
3407;SDS011;1717;50.240;8.406;2023-02-28T01:41:05;6.60;;;5.18;;
3407;SDS011;1717;50.240;8.406;2023-02-28T01:43:52;5.80;;;5.30;;
3407;SDS011;1717;50.240;8.406;2023-02-28T01:46:21;6.22;;;5.30;;
3407;SDS011;1717;50.240;8.406;2023-02-28T01:48:49;6.53;;;5.50;;
3407;SDS011;1717;50.240;8.406;2023-02-28T01:51:20;6.13;;;5.53;;
3407;SDS011;1717;50.240;8.406;2023-02-28T01:53:51;8.33;;;5.00;;
3407;SDS011;1717;50.240;8.406;2023-02-28T01:56:24;5.82;;;5.22;;
3407;SDS011;1717;50.240;8.406;2023-02-28T01:58:55;7.28;;;6.40;;
3407;SDS011;1717;50.240;8.406;2023-02-28T02:01:22;7.10;;;5.57;;
3407;SDS011;1717;50.240;8.406;2023-02-28T02:03:53;5.38;;;4.93;;
3407;SDS011;1717;50.240;8.406;2023-02-28T02:06:25;6.38;;;5.65;;
3407;SDS011;1717;50.240;8.406;2023-02-28T02:08:55;6.10;;;5.07;;
3407;SDS011;1717;50.240;8.406;2023-02-28T02:11:23;7.85;;;5.35;;
3407;SDS011;1717;50.240;8.406;2023-02-28T02:13:58;6.93;;;5.22;;
3407;SDS011;1717;50.240;8.406;2023-02-28T02:16:41;6.60;;;5.90;;
3407;SDS011;1717;50.240;8.406;2023-02-28T02:19:24;8.70;;;5.70;;
3407;SDS011;1717;50.240;8.406;2023-02-28T02:22:12;6.85;;;5.57;;
3407;SDS011;1717;50.240;8.406;2023-02-28T02:25:08;7.30;;;5.03;;
3407;SDS011;1717;50.240;8.406;2023-02-28T02:27:50;5.95;;;5.32;;
3407;SDS011;1717;50.240;8.406;2023-02-28T02:34:10;6.70;;;5.65;;
3407;SDS011;1717;50.240;8.406;2023-02-28T02:36:53;7.53;;;5.35;;
3407;SDS011;1717;50.240;8.406;2023-02-28T02:39:27;9.90;;;4.65;;
3407;SDS011;1717;50.240;8.406;2023-02-28T02:42:03;7.30;;;5.93;;
3407;SDS011;1717;50.240;8.406;2023-02-28T02:44:39;6.35;;;5.15;;
3407;SDS011;1717;50.240;8.406;2023-02-28T02:47:10;6.00;;;5.40;;
3407;SDS011;1717;50.240;8.406;2023-02-28T02:49:43;6.82;;;5.88;;
3407;SDS011;1717;50.240;8.406;2023-02-28T02:52:13;7.13;;;5.85;;
3407;SDS011;1717;50.240;8.406;2023-02-28T02:54:44;7.68;;;5.45;;
3407;SDS011;1717;50.240;8.406;2023-02-28T02:57:15;5.80;;;5.20;;
3407;SDS011;1717;50.240;8.406;2023-02-28T02:59:48;6.45;;;5.38;;
3407;SDS011;1717;50.240;8.406;2023-02-28T03:02:17;6.78;;;5.88;;
3407;SDS011;1717;50.240;8.406;2023-02-28T03:04:51;7.63;;;6.40;;
3407;SDS011;1717;50.240;8.406;2023-02-28T03:07:26;8.90;;;6.13;;
3407;SDS011;1717;50.240;8.406;2023-02-28T03:09:53;5.90;;;5.38;;
3407;SDS011;1717;50.240;8.406;2023-02-28T03:12:22;10.93;;;6.60;;
3407;SDS011;1717;50.240;8.406;2023-02-28T03:14:56;7.50;;;5.82;;
3407;SDS011;1717;50.240;8.406;2023-02-28T03:17:47;9.48;;;6.13;;
3407;SDS011;1717;50.240;8.406;2023-02-28T03:20:27;7.47;;;5.90;;
3407;SDS011;1717;50.240;8.406;2023-02-28T03:23:04;7.25;;;6.40;;
3407;SDS011;1717;50.240;8.406;2023-02-28T03:25:42;7.43;;;5.70;;
3407;SDS011;1717;50.240;8.406;2023-02-28T03:28:22;6.57;;;5.45;;
3407;SDS011;1717;50.240;8.406;2023-02-28T03:30:57;9.68;;;5.35;;
3407;SDS011;1717;50.240;8.406;2023-02-28T03:33:29;7.13;;;5.95;;
3407;SDS011;1717;50.240;8.406;2023-02-28T03:36:01;6.13;;;5.50;;
3407;SDS011;1717;50.240;8.406;2023-02-28T03:38:31;7.30;;;6.05;;
3407;SDS011;1717;50.240;8.406;2023-02-28T03:41:04;7.43;;;6.28;;
3407;SDS011;1717;50.240;8.406;2023-02-28T03:43:35;7.60;;;6.15;;
3407;SDS011;1717;50.240;8.406;2023-02-28T03:46:08;7.32;;;6.57;;
3407;SDS011;1717;50.240;8.406;2023-02-28T03:48:40;6.47;;;5.43;;
3407;SDS011;1717;50.240;8.406;2023-02-28T03:51:12;9.45;;;6.78;;
3407;SDS011;1717;50.240;8.406;2023-02-28T03:53:42;6.20;;;5.60;;
3407;SDS011;1717;50.240;8.406;2023-02-28T03:56:13;6.78;;;5.88;;
3407;SDS011;1717;50.240;8.406;2023-02-28T03:58:47;9.80;;;7.05;;
3407;SDS011;1717;50.240;8.406;2023-02-28T04:01:20;9.82;;;5.97;;
3407;SDS011;1717;50.240;8.406;2023-02-28T04:03:51;8.70;;;6.77;;
3407;SDS011;1717;50.240;8.406;2023-02-28T04:06:20;6.32;;;5.70;;
3407;SDS011;1717;50.240;8.406;2023-02-28T04:08:48;8.52;;;6.45;;
3407;SDS011;1717;50.240;8.406;2023-02-28T04:11:20;7.30;;;5.97;;
3407;SDS011;1717;50.240;8.406;2023-02-28T04:13:50;8.00;;;5.50;;
3407;SDS011;1717;50.240;8.406;2023-02-28T04:16:18;8.65;;;6.65;;
3407;SDS011;1717;50.240;8.406;2023-02-28T04:18:45;8.93;;;6.03;;
3407;SDS011;1717;50.240;8.406;2023-02-28T04:21:12;6.40;;;5.80;;
3407;SDS011;1717;50.240;8.406;2023-02-28T04:23:40;10.32;;;6.63;;
3407;SDS011;1717;50.240;8.406;2023-02-28T04:26:07;8.70;;;7.07;;
3407;SDS011;1717;50.240;8.406;2023-02-28T04:28:34;9.48;;;6.60;;
3407;SDS011;1717;50.240;8.406;2023-02-28T04:31:03;6.63;;;6.05;;
3407;SDS011;1717;50.240;8.406;2023-02-28T04:33:31;8.75;;;6.43;;
3407;SDS011;1717;50.240;8.406;2023-02-28T04:35:59;5.95;;;5.35;;
3407;SDS011;1717;50.240;8.406;2023-02-28T04:38:27;6.60;;;5.90;;
3407;SDS011;1717;50.240;8.406;2023-02-28T04:40:57;7.07;;;6.25;;
3407;SDS011;1717;50.240;8.406;2023-02-28T04:43:25;11.50;;;5.95;;
3407;SDS011;1717;50.240;8.406;2023-02-28T04:45:53;6.93;;;6.10;;
3407;SDS011;1717;50.240;8.406;2023-02-28T04:48:21;7.05;;;6.35;;
3407;SDS011;1717;50.240;8.406;2023-02-28T04:50:48;6.05;;;5.30;;
3407;SDS011;1717;50.240;8.406;2023-02-28T04:53:15;7.15;;;5.78;;
3407;SDS011;1717;50.240;8.406;2023-02-28T04:55:42;6.55;;;5.75;;
3407;SDS011;1717;50.240;8.406;2023-02-28T04:58:10;8.98;;;5.50;;
3407;SDS011;1717;50.240;8.406;2023-02-28T05:00:37;7.10;;;6.13;;
3407;SDS011;1717;50.240;8.406;2023-02-28T05:03:04;8.55;;;6.00;;
3407;SDS011;1717;50.240;8.406;2023-02-28T05:05:31;5.72;;;5.07;;
3407;SDS011;1717;50.240;8.406;2023-02-28T05:07:57;7.18;;;5.68;;
3407;SDS011;1717;50.240;8.406;2023-02-28T05:10:25;7.47;;;5.15;;
3407;SDS011;1717;50.240;8.406;2023-02-28T05:12:51;7.13;;;5.70;;
3407;SDS011;1717;50.240;8.406;2023-02-28T05:15:19;7.30;;;6.13;;
3407;SDS011;1717;50.240;8.406;2023-02-28T05:17:46;6.35;;;5.03;;
3407;SDS011;1717;50.240;8.406;2023-02-28T05:20:13;8.55;;;5.70;;
3407;SDS011;1717;50.240;8.406;2023-02-28T05:22:40;12.10;;;6.38;;
3407;SDS011;1717;50.240;8.406;2023-02-28T05:25:08;7.68;;;5.50;;
3407;SDS011;1717;50.240;8.406;2023-02-28T05:27:40;7.65;;;6.00;;
3407;SDS011;1717;50.240;8.406;2023-02-28T05:30:07;8.60;;;6.57;;
3407;SDS011;1717;50.240;8.406;2023-02-28T05:32:36;8.30;;;6.30;;
3407;SDS011;1717;50.240;8.406;2023-02-28T05:35:04;8.20;;;6.05;;
3407;SDS011;1717;50.240;8.406;2023-02-28T05:37:31;9.63;;;5.90;;
3407;SDS011;1717;50.240;8.406;2023-02-28T05:39:58;10.23;;;8.43;;
3407;SDS011;1717;50.240;8.406;2023-02-28T05:42:25;9.48;;;6.18;;
3407;SDS011;1717;50.240;8.406;2023-02-28T05:44:51;9.15;;;7.18;;
3407;SDS011;1717;50.240;8.406;2023-02-28T05:47:18;8.30;;;7.20;;
3407;SDS011;1717;50.240;8.406;2023-02-28T05:49:46;9.20;;;6.60;;
3407;SDS011;1717;50.240;8.406;2023-02-28T05:52:14;12.07;;;7.10;;
3407;SDS011;1717;50.240;8.406;2023-02-28T05:54:41;7.90;;;6.97;;
3407;SDS011;1717;50.240;8.406;2023-02-28T05:57:08;8.80;;;7.32;;
3407;SDS011;1717;50.240;8.406;2023-02-28T05:59:34;9.23;;;7.90;;
3407;SDS011;1717;50.240;8.406;2023-02-28T06:02:06;10.80;;;6.63;;
3407;SDS011;1717;50.240;8.406;2023-02-28T06:04:38;10.27;;;6.68;;
3407;SDS011;1717;50.240;8.406;2023-02-28T06:07:08;9.75;;;6.57;;
3407;SDS011;1717;50.240;8.406;2023-02-28T06:09:35;9.52;;;7.10;;
3407;SDS011;1717;50.240;8.406;2023-02-28T06:12:04;14.18;;;7.55;;
3407;SDS011;1717;50.240;8.406;2023-02-28T06:14:34;9.05;;;8.13;;
3407;SDS011;1717;50.240;8.406;2023-02-28T06:17:01;12.20;;;8.40;;
3407;SDS011;1717;50.240;8.406;2023-02-28T06:19:28;11.43;;;8.82;;
3407;SDS011;1717;50.240;8.406;2023-02-28T06:21:56;9.95;;;7.18;;
3407;SDS011;1717;50.240;8.406;2023-02-28T06:24:26;9.48;;;7.70;;
3407;SDS011;1717;50.240;8.406;2023-02-28T06:26:54;11.70;;;7.50;;
3407;SDS011;1717;50.240;8.406;2023-02-28T06:29:20;8.52;;;7.68;;
3407;SDS011;1717;50.240;8.406;2023-02-28T06:31:47;11.18;;;7.03;;
3407;SDS011;1717;50.240;8.406;2023-02-28T06:34:14;9.20;;;6.40;;
3407;SDS011;1717;50.240;8.406;2023-02-28T06:36:41;10.57;;;6.90;;
3407;SDS011;1717;50.240;8.406;2023-02-28T06:39:09;10.05;;;6.70;;
3407;SDS011;1717;50.240;8.406;2023-02-28T06:41:37;10.25;;;6.20;;
3407;SDS011;1717;50.240;8.406;2023-02-28T06:44:05;11.15;;;6.30;;
3407;SDS011;1717;50.240;8.406;2023-02-28T06:46:38;8.32;;;6.65;;
3407;SDS011;1717;50.240;8.406;2023-02-28T06:49:05;9.55;;;7.45;;
3407;SDS011;1717;50.240;8.406;2023-02-28T06:51:33;9.20;;;6.60;;
3407;SDS011;1717;50.240;8.406;2023-02-28T06:54:01;6.93;;;6.22;;
3407;SDS011;1717;50.240;8.406;2023-02-28T06:56:28;8.15;;;6.90;;
3407;SDS011;1717;50.240;8.406;2023-02-28T06:58:56;10.18;;;6.80;;
3407;SDS011;1717;50.240;8.406;2023-02-28T07:01:23;8.75;;;6.20;;
3407;SDS011;1717;50.240;8.406;2023-02-28T07:03:50;10.02;;;7.07;;
3407;SDS011;1717;50.240;8.406;2023-02-28T07:06:18;8.48;;;6.40;;
3407;SDS011;1717;50.240;8.406;2023-02-28T07:08:45;11.82;;;6.80;;
3407;SDS011;1717;50.240;8.406;2023-02-28T07:11:12;11.48;;;7.68;;
3407;SDS011;1717;50.240;8.406;2023-02-28T07:13:38;9.50;;;6.60;;
3407;SDS011;1717;50.240;8.406;2023-02-28T07:16:07;9.40;;;7.35;;
3407;SDS011;1717;50.240;8.406;2023-02-28T07:18:38;10.40;;;7.25;;
3407;SDS011;1717;50.240;8.406;2023-02-28T07:21:06;10.10;;;6.95;;
3407;SDS011;1717;50.240;8.406;2023-02-28T07:23:35;9.30;;;7.60;;
3407;SDS011;1717;50.240;8.406;2023-02-28T07:26:10;10.68;;;8.05;;
3407;SDS011;1717;50.240;8.406;2023-02-28T07:28:39;7.65;;;6.47;;
3407;SDS011;1717;50.240;8.406;2023-02-28T07:31:08;10.23;;;6.95;;
3407;SDS011;1717;50.240;8.406;2023-02-28T07:33:36;7.65;;;6.82;;
3407;SDS011;1717;50.240;8.406;2023-02-28T07:36:04;7.97;;;6.15;;
3407;SDS011;1717;50.240;8.406;2023-02-28T07:38:33;9.60;;;6.72;;
3407;SDS011;1717;50.240;8.406;2023-02-28T07:41:00;11.23;;;7.10;;
3407;SDS011;1717;50.240;8.406;2023-02-28T07:43:29;11.77;;;8.95;;
3407;SDS011;1717;50.240;8.406;2023-02-28T07:46:00;11.05;;;6.72;;
3407;SDS011;1717;50.240;8.406;2023-02-28T07:48:29;8.15;;;5.82;;
3407;SDS011;1717;50.240;8.406;2023-02-28T07:50:56;14.13;;;8.30;;
3407;SDS011;1717;50.240;8.406;2023-02-28T07:53:24;9.63;;;6.32;;
3407;SDS011;1717;50.240;8.406;2023-02-28T07:55:51;10.02;;;7.18;;
3407;SDS011;1717;50.240;8.406;2023-02-28T07:58:21;12.27;;;7.60;;
3407;SDS011;1717;50.240;8.406;2023-02-28T08:00:48;13.85;;;7.80;;
3407;SDS011;1717;50.240;8.406;2023-02-28T08:03:15;10.65;;;7.38;;
3407;SDS011;1717;50.240;8.406;2023-02-28T08:05:44;12.82;;;7.40;;
3407;SDS011;1717;50.240;8.406;2023-02-28T08:08:11;10.63;;;7.53;;
3407;SDS011;1717;50.240;8.406;2023-02-28T08:10:37;11.45;;;7.45;;
3407;SDS011;1717;50.240;8.406;2023-02-28T08:13:04;11.60;;;7.93;;
3407;SDS011;1717;50.240;8.406;2023-02-28T08:15:31;7.95;;;7.07;;
3407;SDS011;1717;50.240;8.406;2023-02-28T08:17:58;8.60;;;7.07;;
3407;SDS011;1717;50.240;8.406;2023-02-28T08:20:25;9.35;;;6.70;;
3407;SDS011;1717;50.240;8.406;2023-02-28T08:22:54;10.07;;;7.90;;
3407;SDS011;1717;50.240;8.406;2023-02-28T08:25:21;14.20;;;7.15;;
3407;SDS011;1717;50.240;8.406;2023-02-28T08:27:50;8.55;;;7.10;;
3407;SDS011;1717;50.240;8.406;2023-02-28T08:30:17;12.25;;;7.55;;
3407;SDS011;1717;50.240;8.406;2023-02-28T08:32:44;7.47;;;6.60;;
3407;SDS011;1717;50.240;8.406;2023-02-28T08:35:11;11.07;;;7.22;;
3407;SDS011;1717;50.240;8.406;2023-02-28T08:37:38;11.55;;;7.32;;
3407;SDS011;1717;50.240;8.406;2023-02-28T08:40:07;8.40;;;6.70;;
3407;SDS011;1717;50.240;8.406;2023-02-28T08:42:34;9.83;;;7.00;;
3407;SDS011;1717;50.240;8.406;2023-02-28T08:45:02;6.68;;;5.95;;
3407;SDS011;1717;50.240;8.406;2023-02-28T08:47:29;8.75;;;6.72;;
3407;SDS011;1717;50.240;8.406;2023-02-28T08:49:56;7.40;;;6.15;;
3407;SDS011;1717;50.240;8.406;2023-02-28T08:52:23;9.07;;;6.60;;
3407;SDS011;1717;50.240;8.406;2023-02-28T08:54:50;9.13;;;6.65;;
3407;SDS011;1717;50.240;8.406;2023-02-28T08:57:18;7.85;;;6.70;;
3407;SDS011;1717;50.240;8.406;2023-02-28T08:59:45;7.13;;;5.88;;
3407;SDS011;1717;50.240;8.406;2023-02-28T09:02:12;9.65;;;6.38;;
3407;SDS011;1717;50.240;8.406;2023-02-28T09:04:40;7.55;;;5.72;;
3407;SDS011;1717;50.240;8.406;2023-02-28T09:07:07;8.43;;;6.60;;
3407;SDS011;1717;50.240;8.406;2023-02-28T09:09:34;6.57;;;6.00;;
3407;SDS011;1717;50.240;8.406;2023-02-28T09:12:01;8.27;;;6.30;;
3407;SDS011;1717;50.240;8.406;2023-02-28T09:14:29;9.43;;;5.57;;
3407;SDS011;1717;50.240;8.406;2023-02-28T09:16:56;7.30;;;5.47;;
3407;SDS011;1717;50.240;8.406;2023-02-28T09:19:24;6.88;;;5.70;;
3407;SDS011;1717;50.240;8.406;2023-02-28T09:21:50;7.95;;;5.45;;
3407;SDS011;1717;50.240;8.406;2023-02-28T09:24:17;6.75;;;5.00;;
3407;SDS011;1717;50.240;8.406;2023-02-28T09:26:45;6.10;;;5.47;;
3407;SDS011;1717;50.240;8.406;2023-02-28T09:29:12;7.13;;;5.45;;
3407;SDS011;1717;50.240;8.406;2023-02-28T09:31:40;9.45;;;6.20;;
3407;SDS011;1717;50.240;8.406;2023-02-28T09:34:07;8.95;;;5.90;;
3407;SDS011;1717;50.240;8.406;2023-02-28T09:36:35;7.68;;;5.35;;
3407;SDS011;1717;50.240;8.406;2023-02-28T09:39:03;7.43;;;4.93;;
3407;SDS011;1717;50.240;8.406;2023-02-28T09:41:31;6.00;;;5.25;;
3407;SDS011;1717;50.240;8.406;2023-02-28T09:44:05;6.45;;;4.80;;
3407;SDS011;1717;50.240;8.406;2023-02-28T09:46:38;7.90;;;5.80;;
3407;SDS011;1717;50.240;8.406;2023-02-28T09:49:11;7.30;;;5.43;;
3407;SDS011;1717;50.240;8.406;2023-02-28T09:51:44;8.85;;;5.05;;
3407;SDS011;1717;50.240;8.406;2023-02-28T09:54:17;7.32;;;5.38;;
3407;SDS011;1717;50.240;8.406;2023-02-28T09:56:48;10.38;;;5.68;;
3407;SDS011;1717;50.240;8.406;2023-02-28T09:59:22;7.25;;;5.63;;
3407;SDS011;1717;50.240;8.406;2023-02-28T10:02:00;5.90;;;4.80;;
3407;SDS011;1717;50.240;8.406;2023-02-28T10:04:36;6.43;;;5.28;;
3407;SDS011;1717;50.240;8.406;2023-02-28T10:07:13;8.17;;;5.53;;
3407;SDS011;1717;50.240;8.406;2023-02-28T10:09:46;6.20;;;5.60;;
3407;SDS011;1717;50.240;8.406;2023-02-28T10:12:17;8.68;;;5.55;;
3407;SDS011;1717;50.240;8.406;2023-02-28T10:14:46;9.05;;;5.68;;
3407;SDS011;1717;50.240;8.406;2023-02-28T10:17:19;7.47;;;6.13;;
3407;SDS011;1717;50.240;8.406;2023-02-28T10:19:50;6.43;;;5.15;;
3407;SDS011;1717;50.240;8.406;2023-02-28T10:22:24;8.83;;;5.70;;
3407;SDS011;1717;50.240;8.406;2023-02-28T10:24:55;8.50;;;5.33;;
3407;SDS011;1717;50.240;8.406;2023-02-28T10:27:27;9.13;;;5.93;;
3407;SDS011;1717;50.240;8.406;2023-02-28T10:29:57;6.35;;;5.75;;
3407;SDS011;1717;50.240;8.406;2023-02-28T10:32:27;8.10;;;5.80;;
3407;SDS011;1717;50.240;8.406;2023-02-28T10:34:58;7.00;;;5.87;;
3407;SDS011;1717;50.240;8.406;2023-02-28T10:37:27;7.00;;;5.30;;
3407;SDS011;1717;50.240;8.406;2023-02-28T10:39:54;7.35;;;5.65;;
3407;SDS011;1717;50.240;8.406;2023-02-28T10:42:22;9.50;;;6.20;;
3407;SDS011;1717;50.240;8.406;2023-02-28T10:47:39;6.47;;;5.78;;
3407;SDS011;1717;50.240;8.406;2023-02-28T10:50:28;6.60;;;5.40;;
3407;SDS011;1717;50.240;8.406;2023-02-28T10:53:17;9.00;;;6.87;;
3407;SDS011;1717;50.240;8.406;2023-02-28T10:55:57;5.30;;;4.80;;
3407;SDS011;1717;50.240;8.406;2023-02-28T10:58:26;7.50;;;6.67;;
3407;SDS011;1717;50.240;8.406;2023-02-28T11:00:54;7.50;;;5.90;;
3407;SDS011;1717;50.240;8.406;2023-02-28T11:06:10;7.50;;;5.30;;
3407;SDS011;1717;50.240;8.406;2023-02-28T11:08:45;7.77;;;5.57;;
3407;SDS011;1717;50.240;8.406;2023-02-28T11:11:14;7.30;;;5.57;;
3407;SDS011;1717;50.240;8.406;2023-02-28T11:13:42;7.23;;;6.20;;
3407;SDS011;1717;50.240;8.406;2023-02-28T11:16:12;9.30;;;5.67;;
3407;SDS011;1717;50.240;8.406;2023-02-28T11:18:43;6.63;;;5.53;;
3407;SDS011;1717;50.240;8.406;2023-02-28T11:21:21;8.17;;;5.60;;
3407;SDS011;1717;50.240;8.406;2023-02-28T11:23:51;6.10;;;5.30;;
3407;SDS011;1717;50.240;8.406;2023-02-28T11:26:35;9.17;;;6.80;;
3407;SDS011;1717;50.240;8.406;2023-02-28T11:29:08;8.47;;;6.13;;
3407;SDS011;1717;50.240;8.406;2023-02-28T11:31:39;5.60;;;4.67;;
3407;SDS011;1717;50.240;8.406;2023-02-28T11:36:59;6.40;;;5.50;;
3407;SDS011;1717;50.240;8.406;2023-02-28T11:39:30;7.13;;;5.67;;
3407;SDS011;1717;50.240;8.406;2023-02-28T11:42:04;8.27;;;6.03;;
3407;SDS011;1717;50.240;8.406;2023-02-28T11:44:42;6.77;;;6.07;;
3407;SDS011;1717;50.240;8.406;2023-02-28T11:47:23;7.43;;;6.00;;
3407;SDS011;1717;50.240;8.406;2023-02-28T11:50:03;7.43;;;5.73;;
3407;SDS011;1717;50.240;8.406;2023-02-28T11:52:51;8.60;;;6.50;;
3407;SDS011;1717;50.240;8.406;2023-02-28T11:55:20;7.70;;;6.47;;
3407;SDS011;1717;50.240;8.406;2023-02-28T12:01:13;7.77;;;5.57;;
3407;SDS011;1717;50.240;8.406;2023-02-28T12:03:51;7.00;;;5.77;;
3407;SDS011;1717;50.240;8.406;2023-02-28T12:06:28;8.60;;;6.10;;
3407;SDS011;1717;50.240;8.406;2023-02-28T12:09:04;6.40;;;4.90;;
3407;SDS011;1717;50.240;8.406;2023-02-28T12:11:41;8.27;;;5.73;;
3407;SDS011;1717;50.240;8.406;2023-02-28T12:14:19;7.33;;;6.33;;
3407;SDS011;1717;50.240;8.406;2023-02-28T12:16:59;7.73;;;5.90;;
3407;SDS011;1717;50.240;8.406;2023-02-28T12:19:38;7.23;;;5.47;;
3407;SDS011;1717;50.240;8.406;2023-02-28T12:22:17;7.80;;;6.53;;
3407;SDS011;1717;50.240;8.406;2023-02-28T12:28:12;8.07;;;6.30;;
3407;SDS011;1717;50.240;8.406;2023-02-28T12:30:43;9.60;;;6.67;;
3407;SDS011;1717;50.240;8.406;2023-02-28T12:33:17;7.17;;;5.57;;
3407;SDS011;1717;50.240;8.406;2023-02-28T12:35:51;8.20;;;6.87;;
3407;SDS011;1717;50.240;8.406;2023-02-28T12:38:22;7.97;;;6.63;;
3407;SDS011;1717;50.240;8.406;2023-02-28T12:40:54;11.37;;;6.67;;
3407;SDS011;1717;50.240;8.406;2023-02-28T12:43:27;6.83;;;6.13;;
3407;SDS011;1717;50.240;8.406;2023-02-28T12:46:00;12.00;;;6.90;;
3407;SDS011;1717;50.240;8.406;2023-02-28T12:48:36;8.60;;;6.60;;
3407;SDS011;1717;50.240;8.406;2023-02-28T12:51:07;11.60;;;7.43;;
3407;SDS011;1717;50.240;8.406;2023-02-28T12:53:36;7.90;;;7.00;;
3407;SDS011;1717;50.240;8.406;2023-02-28T12:56:18;8.10;;;6.33;;
3407;SDS011;1717;50.240;8.406;2023-02-28T12:58:49;8.77;;;6.07;;
3407;SDS011;1717;50.240;8.406;2023-02-28T13:01:31;10.03;;;5.90;;
3407;SDS011;1717;50.240;8.406;2023-02-28T13:04:41;10.60;;;7.33;;
3407;SDS011;1717;50.240;8.406;2023-02-28T13:07:37;12.60;;;6.80;;
3407;SDS011;1717;50.240;8.406;2023-02-28T13:10:23;8.83;;;6.50;;
3407;SDS011;1717;50.240;8.406;2023-02-28T13:12:53;7.73;;;6.20;;
3407;SDS011;1717;50.240;8.406;2023-02-28T13:15:29;6.70;;;6.00;;
3407;SDS011;1717;50.240;8.406;2023-02-28T13:18:00;8.17;;;6.67;;
3407;SDS011;1717;50.240;8.406;2023-02-28T13:20:28;10.10;;;9.10;;
3407;SDS011;1717;50.240;8.406;2023-02-28T13:22:59;9.80;;;6.57;;
3407;SDS011;1717;50.240;8.406;2023-02-28T13:32:08;11.47;;;6.93;;
3407;SDS011;1717;50.240;8.406;2023-02-28T13:34:39;9.90;;;7.70;;
3407;SDS011;1717;50.240;8.406;2023-02-28T13:43:01;7.30;;;5.77;;
3407;SDS011;1717;50.240;8.406;2023-02-28T13:45:34;7.50;;;6.47;;
3407;SDS011;1717;50.240;8.406;2023-02-28T13:48:05;9.20;;;6.50;;
3407;SDS011;1717;50.240;8.406;2023-02-28T13:50:43;8.83;;;7.10;;
3407;SDS011;1717;50.240;8.406;2023-02-28T13:53:19;7.03;;;6.17;;
3407;SDS011;1717;50.240;8.406;2023-02-28T13:56:23;8.93;;;6.47;;
3407;SDS011;1717;50.240;8.406;2023-02-28T13:59:03;6.90;;;6.00;;
3407;SDS011;1717;50.240;8.406;2023-02-28T14:01:48;8.77;;;5.87;;
3407;SDS011;1717;50.240;8.406;2023-02-28T14:04:33;9.33;;;6.17;;
3407;SDS011;1717;50.240;8.406;2023-02-28T14:07:16;8.07;;;6.37;;
3407;SDS011;1717;50.240;8.406;2023-02-28T14:09:46;8.70;;;5.63;;
3407;SDS011;1717;50.240;8.406;2023-02-28T14:15:28;7.50;;;5.80;;
3407;SDS011;1717;50.240;8.406;2023-02-28T14:18:23;9.63;;;7.07;;
3407;SDS011;1717;50.240;8.406;2023-02-28T14:20:57;8.23;;;5.97;;
3407;SDS011;1717;50.240;8.406;2023-02-28T14:23:50;8.90;;;6.90;;
3407;SDS011;1717;50.240;8.406;2023-02-28T14:26:46;7.93;;;5.87;;
3407;SDS011;1717;50.240;8.406;2023-02-28T14:32:32;7.90;;;5.97;;
3407;SDS011;1717;50.240;8.406;2023-02-28T14:35:03;10.53;;;6.50;;
3407;SDS011;1717;50.240;8.406;2023-02-28T14:37:41;11.03;;;6.47;;
3407;SDS011;1717;50.240;8.406;2023-02-28T14:40:11;8.57;;;6.60;;
3407;SDS011;1717;50.240;8.406;2023-02-28T14:42:45;7.37;;;6.13;;
3407;SDS011;1717;50.240;8.406;2023-02-28T14:45:17;8.37;;;7.13;;
3407;SDS011;1717;50.240;8.406;2023-02-28T14:47:45;9.27;;;7.47;;
3407;SDS011;1717;50.240;8.406;2023-02-28T14:50:23;10.23;;;6.33;;
3407;SDS011;1717;50.240;8.406;2023-02-28T14:52:54;7.90;;;5.60;;
3407;SDS011;1717;50.240;8.406;2023-02-28T14:55:23;7.13;;;6.40;;
3407;SDS011;1717;50.240;8.406;2023-02-28T14:57:52;8.70;;;6.53;;
3407;SDS011;1717;50.240;8.406;2023-02-28T15:00:22;7.90;;;6.43;;
3407;SDS011;1717;50.240;8.406;2023-02-28T15:02:51;7.20;;;6.50;;
3407;SDS011;1717;50.240;8.406;2023-02-28T15:05:24;6.80;;;6.10;;
3407;SDS011;1717;50.240;8.406;2023-02-28T15:08:11;9.97;;;6.97;;
3407;SDS011;1717;50.240;8.406;2023-02-28T15:10:39;9.17;;;6.80;;
3407;SDS011;1717;50.240;8.406;2023-02-28T15:13:11;7.10;;;6.40;;
3407;SDS011;1717;50.240;8.406;2023-02-28T15:15:45;9.00;;;8.10;;
3407;SDS011;1717;50.240;8.406;2023-02-28T15:18:15;8.70;;;6.07;;
3407;SDS011;1717;50.240;8.406;2023-02-28T15:20:53;8.23;;;6.93;;
3407;SDS011;1717;50.240;8.406;2023-02-28T15:23:22;6.77;;;5.97;;
3407;SDS011;1717;50.240;8.406;2023-02-28T15:25:50;7.43;;;6.03;;
3407;SDS011;1717;50.240;8.406;2023-02-28T15:28:20;8.53;;;6.93;;
3407;SDS011;1717;50.240;8.406;2023-02-28T15:30:53;9.60;;;7.60;;
3407;SDS011;1717;50.240;8.406;2023-02-28T15:33:22;7.87;;;7.00;;
3407;SDS011;1717;50.240;8.406;2023-02-28T15:35:51;8.67;;;6.57;;
3407;SDS011;1717;50.240;8.406;2023-02-28T15:38:33;7.47;;;6.60;;
3407;SDS011;1717;50.240;8.406;2023-02-28T15:41:03;7.67;;;6.87;;
3407;SDS011;1717;50.240;8.406;2023-02-28T15:43:34;7.57;;;6.77;;
3407;SDS011;1717;50.240;8.406;2023-02-28T15:46:02;8.27;;;6.60;;
3407;SDS011;1717;50.240;8.406;2023-02-28T15:48:32;10.30;;;7.20;;
3407;SDS011;1717;50.240;8.406;2023-02-28T15:51:02;7.40;;;6.70;;
3407;SDS011;1717;50.240;8.406;2023-02-28T15:53:36;9.73;;;5.87;;
3407;SDS011;1717;50.240;8.406;2023-02-28T15:56:16;10.27;;;7.00;;
3407;SDS011;1717;50.240;8.406;2023-02-28T15:58:48;9.83;;;7.10;;
3407;SDS011;1717;50.240;8.406;2023-02-28T16:01:20;7.63;;;6.83;;
3407;SDS011;1717;50.240;8.406;2023-02-28T16:03:50;6.97;;;6.37;;
3407;SDS011;1717;50.240;8.406;2023-02-28T16:06:22;7.67;;;6.83;;
3407;SDS011;1717;50.240;8.406;2023-02-28T16:09:05;8.80;;;6.93;;
3407;SDS011;1717;50.240;8.406;2023-02-28T16:11:35;7.63;;;6.30;;
3407;SDS011;1717;50.240;8.406;2023-02-28T16:14:06;7.47;;;6.70;;